Time;durP1;ratioP1;P1;durP2;ratioP2;P2;SDS_P1;SDS_P2;PMS_P1;PMS_P2;Temp;Humidity;BMP_temperature;BMP_pressure;BME280_temperature;BME280_humidity;BME280_pressure;Samples;Min_cycle;Max_cycle;Signal;HPM_P1;HPM_P2
2020/12/18 00:02:23;;;;;;;33.78;20.15;;;;;;;6.74;80.45;101508.88;5032259;28;20442;-68
2020/12/18 00:04:48;;;;;;;28.23;19.02;;;;;;;6.65;80.31;101499.75;5032313;28;20029;-67
2020/12/18 00:07:15;;;;;;;32.38;18.05;;;;;;;6.69;80.17;101505.66;5032242;28;20029;-67
2020/12/18 00:09:44;;;;;;;35.35;20.55;;;;;;;6.95;78.82;101536.56;5032041;28;20113;-67
2020/12/18 00:12:10;;;;;;;28.42;19.38;;;;;;;6.90;78.83;101533.31;5031127;28;20400;-67
2020/12/18 00:14:36;;;;;;;30.17;20.10;;;;;;;6.64;79.06;101508.44;5032174;28;20025;-67
2020/12/18 00:17:03;;;;;;;32.42;20.75;;;;;;;6.89;79.39;101533.41;5032084;28;20064;-68
2020/12/18 00:19:29;;;;;;;30.05;20.45;;;;;;;6.92;79.42;101538.44;5032187;28;20029;-67
2020/12/18 00:21:58;;;;;;;29.75;18.77;;;;;;;6.68;79.86;101517.81;5032141;28;20041;-67
2020/12/18 00:24:23;;;;;;;31.67;18.08;;;;;;;6.73;80.30;101541.91;5031972;28;20382;-68
2020/12/18 00:26:49;;;;;;;29.13;17.15;;;;;;;6.71;80.41;101543.72;5031870;28;20049;-67
2020/12/18 00:29:15;;;;;;;32.75;20.33;;;;;;;6.64;81.02;101537.09;5032030;28;20029;-67
2020/12/18 00:31:41;;;;;;;33.78;22.17;;;;;;;6.51;81.24;101507.31;5032038;28;20075;-68
2020/12/18 00:34:07;;;;;;;37.00;22.83;;;;;;;6.63;81.99;101543.22;5031773;28;20026;-67
2020/12/18 00:36:32;;;;;;;33.92;21.35;;;;;;;6.43;82.84;101515.47;5032287;28;20163;-67
2020/12/18 00:38:58;;;;;;;33.17;21.35;;;;;;;6.51;82.66;101530.75;5032031;28;20025;-67
2020/12/18 00:41:23;;;;;;;34.42;22.25;;;;;;;6.24;82.40;101536.25;5032270;28;20057;-67
2020/12/18 00:43:49;;;;;;;39.35;23.63;;;;;;;6.09;83.66;101539.53;5032023;28;20021;-67
2020/12/18 00:46:14;;;;;;;41.97;24.70;;;;;;;5.83;84.42;101523.22;5031486;28;20029;-67
2020/12/18 00:48:40;;;;;;;38.35;23.25;;;;;;;5.72;84.60;101517.66;5031961;28;20065;-67
2020/12/18 00:51:05;;;;;;;44.58;25.83;;;;;;;5.86;84.48;101541.31;5032273;28;20033;-67
2020/12/18 00:53:34;;;;;;;30.33;17.52;;;;;;;5.69;84.59;101503.00;5035435;28;20436;-67
2020/12/18 00:55:59;;;;;;;26.73;17.15;;;;;;;5.97;84.10;101533.09;5035499;28;20033;-67
2020/12/18 00:58:24;;;;;;;24.38;14.80;;;;;;;6.02;83.83;101535.50;5034217;28;20026;-68
2020/12/18 01:00:50;;;;;;;24.60;15.65;;;;;;;5.94;84.61;101529.78;5035431;28;20025;-68
2020/12/18 01:03:15;;;;;;;36.47;19.20;;;;;;;5.74;85.16;101510.63;5035613;28;20407;-67
2020/12/18 01:05:41;;;;;;;30.60;20.00;;;;;;;5.67;85.15;101530.00;5035333;28;20473;-67
2020/12/18 01:08:06;;;;;;;31.38;20.42;;;;;;;5.58;85.95;101518.22;5035223;28;20025;-67
2020/12/18 01:10:32;;;;;;;29.60;17.85;;;;;;;5.53;86.30;101514.94;5035310;28;20022;-67
2020/12/18 01:12:57;;;;;;;32.92;19.80;;;;;;;5.60;86.20;101519.03;5035337;28;20123;-67
2020/12/18 01:15:23;;;;;;;29.85;19.77;;;;;;;5.86;85.36;101540.47;5035139;28;20036;-68
2020/12/18 01:17:48;;;;;;;33.67;20.92;;;;;;;5.97;85.13;101527.03;5035183;28;20025;-67
2020/12/18 01:20:13;;;;;;;31.30;19.38;;;;;;;6.09;84.59;101526.53;5035001;28;20022;-67
2020/12/18 01:22:39;;;;;;;30.95;17.85;;;;;;;6.07;83.95;101517.94;5034990;28;20032;-67
2020/12/18 01:25:04;;;;;;;26.45;16.88;;;;;;;6.06;83.90;101506.69;5034783;28;20029;-68
2020/12/18 01:27:30;;;;;;;30.52;17.48;;;;;;;6.22;83.89;101517.28;5035082;28;20026;-67
2020/12/18 01:29:55;;;;;;;26.35;17.80;;;;;;;6.23;83.25;101512.91;5034948;28;20061;-67
2020/12/18 01:32:21;;;;;;;27.88;18.63;;;;;;;6.37;83.82;101521.78;5034796;28;20075;-68
2020/12/18 01:34:47;;;;;;;28.35;19.45;;;;;;;6.21;83.47;101502.59;5035053;28;20029;-67
2020/12/18 01:37:12;;;;;;;30.30;18.85;;;;;;;6.27;83.43;101499.69;5034960;28;20037;-67
2020/12/18 01:39:38;;;;;;;26.35;17.52;;;;;;;6.48;82.84;101523.94;5034961;28;20032;-67
2020/12/18 01:42:04;;;;;;;25.95;17.52;;;;;;;6.43;82.30;101525.06;5033536;28;20034;-67
2020/12/18 01:44:29;;;;;;;27.13;18.33;;;;;;;6.43;82.23;101517.25;5034657;28;20041;-67
2020/12/18 01:46:55;;;;;;;34.35;19.83;;;;;;;6.38;83.21;101528.72;5034569;28;20034;-67
2020/12/18 01:49:20;;;;;;;28.88;19.65;;;;;;;6.28;83.90;101510.97;5034643;28;20374;-67
2020/12/18 01:51:48;;;;;;;30.65;20.25;;;;;;;6.34;83.70;101515.88;5033398;28;20037;-67
2020/12/18 01:54:14;;;;;;;29.17;19.30;;;;;;;6.34;83.39;101495.88;5034636;28;20439;-67
2020/12/18 01:56:40;;;;;;;31.20;20.20;;;;;;;6.53;83.60;101531.53;5034471;28;20044;-67
2020/12/18 01:59:06;;;;;;;32.83;18.00;;;;;;;6.53;83.18;101521.13;5034384;28;20022;-68
2020/12/18 02:01:32;;;;;;;32.03;19.98;;;;;;;6.49;83.33;101511.75;5034519;28;20099;-67
2020/12/18 02:03:58;;;;;;;29.02;19.35;;;;;;;6.43;83.57;101507.66;5033820;28;20033;-67
2020/12/18 02:06:26;;;;;;;27.05;19.00;;;;;;;6.59;83.57;101533.88;5033968;28;20025;-67
2020/12/18 02:08:51;;;;;;;88.88;49.08;;;;;;;6.57;83.41;101522.66;5034240;28;20029;-67
2020/12/18 02:11:21;;;;;;;93.90;51.33;;;;;;;6.43;83.58;101493.81;5034116;28;20056;-67
2020/12/18 02:13:49;;;;;;;;;;;;;;;6.58;83.78;101529.56;5034261;28;20026;-68
2020/12/18 02:16:15;;;;;;;49.33;30.17;;;;;;;6.53;83.85;101526.34;5034239;28;19967;-67
2020/12/18 02:18:41;;;;;;;45.05;26.10;;;;;;;6.51;83.72;101518.56;5034035;28;20030;-67
2020/12/18 02:21:06;;;;;;;39.85;25.70;;;;;;;6.21;83.76;101463.53;5034004;28;20018;-67
2020/12/18 02:23:36;;;;;;;41.00;24.08;;;;;;;6.55;83.76;101516.69;5033755;28;20079;-67
2020/12/18 02:26:07;;;;;;;39.83;26.23;;;;;;;6.39;83.52;101491.34;5034094;28;20064;-68
2020/12/18 02:28:36;;;;;;;41.20;27.30;;;;;;;6.36;83.85;101485.41;5034129;28;20108;-64
2020/12/18 02:31:02;;;;;;;41.78;26.08;;;;;;;6.33;83.10;101486.41;5033456;28;20029;-67
2020/12/18 02:33:30;;;;;;;35.22;22.38;;;;;;;6.51;83.43;101512.53;5033535;28;20029;-67
2020/12/18 02:35:56;;;;;;;33.03;20.75;;;;;;;6.39;83.70;101487.88;5033784;28;20039;-67
2020/12/18 02:38:22;;;;;;;32.40;20.08;;;;;;;6.52;83.71;101515.06;5032810;28;20108;-68
2020/12/18 02:40:47;;;;;;;31.02;19.63;;;;;;;6.29;83.75;101484.84;5032679;28;20048;-68
2020/12/18 02:43:12;;;;;;;34.10;22.10;;;;;;;6.44;83.98;101516.31;5032688;28;20029;-67
2020/12/18 02:45:38;;;;;;;34.75;20.27;;;;;;;6.50;83.64;101514.28;5032682;28;20538;-68
2020/12/18 02:48:03;;;;;;;32.28;20.30;;;;;;;6.41;83.25;101495.63;5033032;28;20033;-68
2020/12/18 02:50:29;;;;;;;30.48;19.98;;;;;;;6.41;83.57;101488.66;5032812;28;20026;-67
2020/12/18 02:52:54;;;;;;;29.83;17.45;;;;;;;6.46;83.13;101498.88;5032637;28;20374;-68
2020/12/18 02:55:20;;;;;;;29.02;18.95;;;;;;;6.54;82.47;101509.78;5032492;28;20420;-68
2020/12/18 02:57:45;;;;;;;32.13;20.08;;;;;;;6.66;82.72;101522.25;5032396;28;20100;-68
2020/12/18 03:00:10;;;;;;;30.98;20.08;;;;;;;6.65;82.48;101522.31;5032333;28;20029;-68
2020/12/18 03:02:36;;;;;;;33.30;20.27;;;;;;;6.55;82.94;101527.13;5032295;28;20504;-68
2020/12/18 03:05:03;;;;;;;30.70;19.40;;;;;;;6.69;82.65;101527.34;5032287;28;20132;-68
2020/12/18 03:07:28;;;;;;;34.25;18.90;;;;;;;6.56;82.38;101500.16;5031804;28;20033;-67
2020/12/18 03:09:53;;;;;;;31.13;19.05;;;;;;;6.76;82.79;101535.72;5032191;28;20465;-67
2020/12/18 03:12:19;;;;;;;35.22;21.45;;;;;;;6.68;82.78;101530.00;5032680;28;20025;-68
2020/12/18 03:14:45;;;;;;;33.90;22.40;;;;;;;6.77;82.33;101535.63;5031872;28;20021;-68
2020/12/18 03:17:10;;;;;;;35.45;22.92;;;;;;;6.57;82.26;101502.66;5031905;28;20473;-68
2020/12/18 03:19:36;;;;;;;41.38;24.42;;;;;;;6.64;82.56;101544.91;5032391;28;20178;-68
2020/12/18 03:22:01;;;;;;;43.30;25.85;;;;;;;6.43;82.64;101510.25;5032925;28;20021;-67
2020/12/18 03:24:27;;;;;;;42.88;25.02;;;;;;;6.65;82.65;101544.03;5032847;28;20025;-67
2020/12/18 03:26:52;;;;;;;43.30;24.75;;;;;;;6.43;83.70;101512.88;5032955;28;20076;-68
2020/12/18 03:29:17;;;;;;;43.15;24.70;;;;;;;6.09;84.72;101521.31;5030759;28;20440;-68
2020/12/18 03:31:43;;;;;;;40.70;23.73;;;;;;;5.90;85.80;101505.59;5031107;28;20028;-70
2020/12/18 03:34:09;;;;;;;41.65;25.60;;;;;;;6.08;86.58;101538.69;5030922;28;20409;-68
2020/12/18 03:36:36;;;;;;;40.28;23.60;;;;;;;5.98;86.24;101507.94;5031234;28;20515;-68
2020/12/18 03:39:07;;;;;;;33.67;21.35;;;;;;;6.02;86.68;101530.31;5032565;28;20032;-67
2020/12/18 03:41:32;;;;;;;30.27;17.23;;;;;;;5.93;86.71;101528.09;5030831;28;20029;-68
2020/12/18 03:43:58;;;;;;;29.98;16.92;;;;;;;5.81;86.98;101526.84;5031657;28;20029;-68
2020/12/18 03:46:23;;;;;;;30.10;17.77;;;;;;;5.69;86.95;101504.78;5031689;28;20095;-68
2020/12/18 03:48:49;;;;;;;39.25;22.48;;;;;;;5.85;87.03;101528.38;5031865;28;20473;-67
2020/12/18 03:51:14;;;;;;;34.45;17.92;;;;;;;5.87;87.18;101543.03;5031781;28;20091;-67
2020/12/18 03:53:40;;;;;;;32.00;18.30;;;;;;;5.79;87.70;101534.69;5031603;28;20033;-67
2020/12/18 03:56:05;;;;;;;27.60;16.95;;;;;;;5.63;88.08;101511.06;5032009;28;20041;-68
2020/12/18 03:58:31;;;;;;;41.50;26.77;;;;;;;5.81;87.37;101535.47;5031968;28;20021;-68
2020/12/18 04:00:56;;;;;;;42.28;25.50;;;;;;;5.95;86.87;101532.31;5031602;28;20033;-68
2020/12/18 04:03:21;;;;;;;45.67;26.38;;;;;;;5.80;86.93;101533.75;5032005;28;20416;-68
2020/12/18 04:05:47;;;;;;;51.30;27.30;;;;;;;5.80;87.12;101536.38;5031552;28;20461;-68
2020/12/18 04:08:12;;;;;;;49.75;26.90;;;;;;;5.95;87.32;101541.91;5030957;28;20021;-67
2020/12/18 04:10:38;;;;;;;31.10;17.23;;;;;;;6.00;86.61;101538.16;5032281;28;20029;-67
2020/12/18 04:13:03;;;;;;;32.35;17.85;;;;;;;5.99;86.77;101533.88;5032255;28;20026;-67
2020/12/18 04:15:29;;;;;;;30.30;17.25;;;;;;;6.05;86.58;101540.59;5032636;28;20047;-67
2020/12/18 04:17:54;;;;;;;36.40;19.75;;;;;;;6.00;85.70;101521.72;5032270;28;20116;-67
2020/12/18 04:20:19;;;;;;;34.40;20.27;;;;;;;6.08;86.83;101536.09;5032283;28;20025;-67
2020/12/18 04:22:45;;;;;;;31.23;17.20;;;;;;;6.05;86.15;101509.38;5032064;28;20026;-68
2020/12/18 04:25:10;;;;;;;34.13;20.50;;;;;;;6.18;86.54;101531.34;5032198;28;20017;-68
2020/12/18 04:27:36;;;;;;;36.72;21.98;;;;;;;6.25;86.05;101539.75;5035351;28;20109;-67
2020/12/18 04:30:02;;;;;;;39.03;21.83;;;;;;;6.26;85.61;101539.66;5036243;28;20029;-67
2020/12/18 04:32:28;;;;;;;42.58;23.48;;;;;;;6.29;85.75;101543.88;5036007;28;20030;-68
2020/12/18 04:34:53;;;;;;;38.03;22.27;;;;;;;6.02;85.61;101515.53;5036013;28;20476;-67
2020/12/18 04:37:19;;;;;;;46.75;24.38;;;;;;;6.11;86.01;101548.16;5035639;28;20455;-68
2020/12/18 04:39:44;;;;;;;42.53;23.42;;;;;;;5.81;87.56;101517.28;5036212;28;20033;-67
2020/12/18 04:42:10;;;;;;;42.20;23.33;;;;;;;5.91;87.50;101523.78;5035846;28;20029;-67
2020/12/18 04:44:36;;;;;;;45.00;24.67;;;;;;;5.95;87.03;101518.47;5035878;28;20538;-67
2020/12/18 04:47:02;;;;;;;48.63;25.27;;;;;;;6.07;86.49;101523.13;5034315;28;20408;-67
2020/12/18 04:49:29;;;;;;;39.60;23.00;;;;;;;5.98;86.23;101507.94;5034426;28;20420;-67
2020/12/18 04:52:00;;;;;;;40.72;24.33;;;;;;;6.18;86.42;101552.19;5035601;28;20033;-67
2020/12/18 04:54:27;;;;;;;40.53;22.85;;;;;;;6.09;86.28;101531.72;5036118;28;20049;-68
2020/12/18 04:56:55;;;;;;;39.95;23.75;;;;;;;6.25;85.63;101563.16;5035602;28;20039;-67
2020/12/18 04:59:24;;;;;;;39.42;24.02;;;;;;;6.13;85.91;101533.28;5035548;28;20564;-67
2020/12/18 05:01:54;;;;;;;46.05;25.33;;;;;;;6.12;85.30;101529.84;5034144;28;20059;-68
2020/12/18 05:04:21;;;;;;;43.85;24.73;;;;;;;6.32;85.50;101562.81;5035118;28;20080;-68
2020/12/18 05:06:46;;;;;;;40.80;24.95;;;;;;;6.45;85.05;101564.91;5035033;28;20040;-67
2020/12/18 05:09:12;;;;;;;41.17;23.88;;;;;;;6.57;84.30;101574.75;5035901;28;20030;-67
2020/12/18 05:11:37;;;;;;;41.05;24.20;;;;;;;6.60;84.50;101574.63;5035479;28;20048;-67
2020/12/18 05:14:03;;;;;;;45.33;25.08;;;;;;;6.55;85.07;101571.41;5035295;28;20076;-67
2020/12/18 05:16:28;;;;;;;43.70;24.75;;;;;;;6.53;84.57;101576.66;5035206;28;20032;-67
2020/12/18 05:19:02;;;;;;;41.42;24.83;;;;;;;6.55;84.80;101585.25;5035154;28;20079;-68
2020/12/18 05:21:29;;;;;;;41.35;23.67;;;;;;;6.55;85.10;101584.41;5035136;28;20412;-67
2020/12/18 05:23:54;;;;;;;44.03;23.67;;;;;;;6.53;84.90;101578.41;5035305;28;20037;-67
2020/12/18 05:26:26;;;;;;;62.08;36.03;;;;;;;6.42;84.52;101552.84;5034898;28;20050;-67
2020/12/18 05:28:54;;;;;;;53.05;30.23;;;;;;;6.57;84.60;101588.63;5035242;28;20400;-68
2020/12/18 05:31:20;;;;;;;55.90;31.98;;;;;;;6.59;84.58;101597.22;5034786;28;20021;-68
2020/12/18 05:33:47;;;;;;;49.95;31.27;;;;;;;6.48;84.59;101567.34;5034107;28;20406;-67
2020/12/18 05:36:12;;;;;;;50.30;28.55;;;;;;;6.68;84.09;101593.34;5034613;28;20469;-68
2020/12/18 05:38:39;;;;;;;54.00;27.73;;;;;;;6.74;83.76;101603.50;5034852;28;20026;-67
2020/12/18 05:41:06;;;;;;;51.17;29.35;;;;;;;6.60;83.73;101566.81;5034717;28;20481;-67
2020/12/18 05:43:35;;;;;;;42.95;25.85;;;;;;;6.59;83.84;101570.34;5034767;28;20032;-67
2020/12/18 05:46:18;;;;;;;50.78;31.50;;;;;;;6.74;83.69;101593.09;5034453;28;20046;-68
2020/12/18 05:48:45;;;;;;;48.92;30.80;;;;;;;6.62;84.06;101583.22;5034823;28;20029;-67
2020/12/18 05:51:26;;;;;;;47.13;29.38;;;;;;;6.56;84.50;101580.91;5034531;28;20037;-68
2020/12/18 05:54:18;;;;;;;48.47;30.95;;;;;;;6.59;84.73;101607.66;5034271;28;20038;-67
2020/12/18 05:56:48;;;;;;;53.47;31.75;;;;;;;6.48;85.18;101589.06;5032446;28;20061;-68
2020/12/18 05:59:15;;;;;;;;;;;;;;;6.57;85.03;101611.22;5034441;28;20025;-68
2020/12/18 06:01:45;;;;;;;46.67;26.95;;;;;;;6.46;85.11;101605.66;5033505;28;20431;-69
2020/12/18 06:04:18;;;;;;;49.38;30.17;;;;;;;6.31;85.10;101584.56;5034126;28;20477;-68
2020/12/18 06:06:54;;;;;;;56.88;34.25;;;;;;;6.50;85.32;101617.63;5033045;28;20026;-67
2020/12/18 06:09:23;;;;;;;55.72;34.58;;;;;;;6.49;84.94;101600.31;5033388;28;20392;-67
2020/12/18 06:11:49;;;;;;;51.30;31.48;;;;;;;6.48;85.17;101609.88;5033448;28;20025;-68
2020/12/18 06:14:17;;;;;;;56.58;31.52;;;;;;;6.10;84.86;101536.88;5033675;28;20021;-68
2020/12/18 06:16:53;;;;;;;54.33;32.60;;;;;;;6.62;84.70;101617.09;5033872;28;20392;-69
2020/12/18 06:19:22;;;;;;;51.22;30.13;;;;;;;6.53;85.03;101609.69;5032001;28;20030;-68
2020/12/18 06:21:58;;;;;;;52.13;30.93;;;;;;;6.46;85.36;101614.31;5030845;28;20022;-68
2020/12/18 06:24:24;;;;;;;50.17;30.10;;;;;;;6.30;85.22;101601.09;5033279;28;20056;-68
2020/12/18 06:26:54;;;;;;;49.08;29.17;;;;;;;6.29;85.57;101620.25;5032636;28;20037;-69
2020/12/18 06:29:22;;;;;;;;;;;;;;;6.26;85.95;101622.97;5033419;28;20454;-69
2020/12/18 06:31:47;;;;;;;49.47;26.85;;;;;;;5.97;86.31;101584.28;5064991;28;19913;-69
2020/12/18 06:34:23;;;;;;;47.83;29.27;;;;;;;6.24;86.31;101619.56;5032767;28;20163;-68
2020/12/18 06:36:49;;;;;;;51.85;30.65;;;;;;;6.38;86.18;101627.66;5033073;28;20044;-68
2020/12/18 06:39:25;;;;;;;45.67;28.60;;;;;;;6.24;85.66;101598.75;5032897;28;20468;-68
2020/12/18 06:42:14;;;;;;;50.83;31.77;;;;;;;6.55;84.44;101628.69;5032797;28;20033;-68
2020/12/18 06:44:50;;;;;;;52.22;30.88;;;;;;;6.63;84.27;101637.84;5027101;28;20472;-67
2020/12/18 06:47:28;;;;;;;51.70;30.30;;;;;;;6.43;84.33;101592.75;5033908;28;20481;-68
2020/12/18 06:49:56;;;;;;;53.17;31.48;;;;;;;6.68;84.61;101622.00;5030303;28;20100;-68
2020/12/18 06:52:45;;;;;;;48.78;29.90;;;;;;;6.59;84.75;101623.28;5032262;28;20049;-68
2020/12/18 06:55:34;;;;;;;50.38;27.88;;;;;;;6.65;84.59;101626.50;5031074;28;20032;-68
2020/12/18 06:58:05;;;;;;;44.45;29.90;;;;;;;6.76;84.73;101630.34;5032758;28;20109;-68
2020/12/18 07:00:32;;;;;;;49.60;27.15;;;;;;;6.55;84.18;101597.44;5034669;28;20472;-68
2020/12/18 07:02:57;;;;;;;46.38;26.08;;;;;;;6.37;83.99;101576.47;5033763;28;20025;-68
2020/12/18 07:05:33;;;;;;;42.35;25.17;;;;;;;6.76;84.02;101635.56;5052730;28;20029;-67
2020/12/18 07:08:02;;;;;;;44.22;26.35;;;;;;;6.67;84.04;101625.53;5039609;28;20083;-68
2020/12/18 07:10:31;;;;;;;46.92;27.63;;;;;;;6.50;84.35;101604.59;5029620;28;20029;-69
2020/12/18 07:12:58;;;;;;;47.85;27.45;;;;;;;6.72;84.23;101634.03;5030752;28;20056;-68
2020/12/18 07:15:45;;;;;;;47.47;27.60;;;;;;;6.64;84.23;101625.69;5030536;28;20029;-69
2020/12/18 07:18:25;;;;;;;38.45;24.23;;;;;;;6.68;83.58;101622.00;5030541;28;20176;-68
2020/12/18 07:20:51;;;;;;;42.75;29.67;;;;;;;6.78;83.03;101625.94;5030585;28;20065;-69
2020/12/18 07:23:18;;;;;;;25.17;15.63;;;;;;;6.76;84.56;101626.91;5029982;28;20040;-68
2020/12/18 07:25:44;;;;;;;41.88;25.48;;;;;;;6.65;83.12;101609.16;5030750;28;20054;-68
2020/12/18 07:28:10;;;;;;;39.53;23.85;;;;;;;6.68;82.55;101602.94;5032265;28;20053;-68
2020/12/18 07:30:44;;;;;;;37.03;22.95;;;;;;;6.65;82.90;101603.06;5032684;28;20067;-68
2020/12/18 07:33:12;;;;;;;60.22;43.22;;;;;;;6.72;84.56;101610.56;5032452;28;20217;-68
2020/12/18 07:35:41;;;;;;;38.42;23.80;;;;;;;6.95;83.44;101624.31;5049394;28;20037;-68
2020/12/18 07:38:22;;;;;;;36.08;24.95;;;;;;;6.86;81.88;101610.78;5017486;28;20037;-68
2020/12/18 07:40:51;;;;;;;39.72;25.40;;;;;;;6.97;81.90;101633.75;5021410;28;20033;-68
2020/12/18 07:43:19;;;;;;;39.60;25.48;;;;;;;6.84;81.99;101630.00;5022508;28;20033;-69
2020/12/18 07:45:47;;;;;;;36.47;24.55;;;;;;;6.67;82.65;101604.69;5022838;28;20037;-69
2020/12/18 07:48:15;;;;;;;37.38;23.38;;;;;;;6.60;81.83;101585.88;5023032;28;20041;-68
2020/12/18 07:51:09;;;;;;;31.58;20.35;;;;;;;7.00;81.23;101640.59;5021481;28;20103;-69
2020/12/18 07:53:37;;;;;;;31.85;19.48;;;;;;;6.98;80.39;101637.22;5018174;28;20412;-69
2020/12/18 07:56:10;;;;;;;31.17;20.30;;;;;;;6.91;81.03;101638.41;5029115;28;20041;-68
2020/12/18 07:58:55;;;;;;;34.78;22.40;;;;;;;6.82;81.59;101643.13;5023886;28;20096;-68
2020/12/18 08:01:22;;;;;;;32.30;21.85;;;;;;;6.86;81.53;101643.81;5023604;28;20039;-69
2020/12/18 08:03:50;;;;;;;30.55;19.20;;;;;;;6.77;80.40;101608.59;5025259;28;20033;-68
2020/12/18 08:06:21;;;;;;;33.20;21.35;;;;;;;6.98;80.80;101647.63;5029390;28;20072;-69
2020/12/18 08:08:58;;;;;;;31.23;20.17;;;;;;;6.79;81.32;101618.97;5019757;28;20033;-69
2020/12/18 08:11:25;;;;;;;32.20;20.80;;;;;;;6.88;80.64;101612.47;5020389;28;20524;-68
2020/12/18 08:13:53;;;;;;;33.35;21.10;;;;;;;7.06;80.42;101650.75;5021826;28;20037;-68
2020/12/18 08:16:20;;;;;;;34.72;21.15;;;;;;;6.89;79.69;101643.69;5019856;28;20045;-68
2020/12/18 08:18:49;;;;;;;30.48;19.10;;;;;;;6.71;79.32;101650.53;5020766;28;20033;-67
2020/12/18 08:21:22;;;;;;;30.30;18.70;;;;;;;6.72;79.16;101635.78;5023987;28;20476;-67
2020/12/18 08:23:54;;;;;;;29.65;19.25;;;;;;;6.93;78.58;101649.63;5023331;28;20030;-67
2020/12/18 08:26:23;;;;;;;33.78;22.08;;;;;;;6.95;79.91;101658.19;5016723;28;20077;-69
2020/12/18 08:28:49;;;;;;;32.00;21.42;;;;;;;6.84;79.85;101625.63;5016673;28;20030;-68
2020/12/18 08:31:17;;;;;;;32.50;21.13;;;;;;;6.93;79.17;101639.19;5025464;28;20412;-68
2020/12/18 08:33:54;;;;;;;33.75;21.08;;;;;;;6.99;78.87;101647.56;5022794;28;20024;-68
2020/12/18 08:36:23;;;;;;;29.08;19.45;;;;;;;6.94;79.05;101646.94;5028893;28;20030;-67
2020/12/18 08:39:08;;;;;;;27.58;19.73;;;;;;;6.83;79.06;101621.34;5017936;28;20087;-68
2020/12/18 08:41:54;;;;;;;29.63;19.58;;;;;;;7.13;77.88;101651.31;5025304;28;20039;-67
2020/12/18 08:44:27;;;;;;;32.97;20.35;;;;;;;7.08;77.99;101646.31;5015859;28;20216;-70
2020/12/18 08:46:52;;;;;;;31.35;19.85;;;;;;;7.02;79.13;101616.16;5021838;28;20091;-68
2020/12/18 08:49:21;;;;;;;25.83;16.15;;;;;;;7.12;77.58;101620.94;5023487;28;20480;-68
2020/12/18 08:51:48;;;;;;;27.90;17.80;;;;;;;7.06;77.40;101609.88;5030142;28;20513;-68
2020/12/18 08:54:40;;;;;;;37.60;24.02;;;;;;;7.20;78.62;101643.16;5020148;28;20025;-68
2020/12/18 08:57:27;;;;;;;32.53;19.77;;;;;;;7.13;79.22;101635.69;5024377;28;20021;-69
2020/12/18 09:00:10;;;;;;;37.97;23.05;;;;;;;6.94;78.68;101599.16;5016962;28;20084;-69
2020/12/18 09:02:43;;;;;;;29.25;16.50;;;;;;;7.06;78.64;101630.75;5016936;28;20060;-69
2020/12/18 09:05:22;;;;;;;27.05;16.17;;;;;;;7.04;76.42;101609.09;5021339;28;20037;-68
2020/12/18 09:07:54;;;;;;;24.90;15.00;;;;;;;6.89;75.63;101586.34;5022455;28;20022;-70
2020/12/18 09:10:30;;;;;;;26.08;14.95;;;;;;;7.24;75.18;101628.19;5021973;28;20025;-68
2020/12/18 09:12:57;;;;;;;26.33;16.05;;;;;;;7.12;74.86;101616.59;5025453;28;20128;-68
2020/12/18 09:15:24;;;;;;;23.77;15.55;;;;;;;7.07;75.19;101626.38;5029741;28;20037;-68
2020/12/18 09:18:06;;;;;;;23.55;14.35;;;;;;;7.07;75.44;101621.16;5026296;28;20113;-69
2020/12/18 09:20:37;;;;;;;23.13;15.70;;;;;;;7.12;76.01;101619.19;5031293;28;20404;-68
2020/12/18 09:23:03;;;;;;;30.05;20.40;;;;;;;7.03;76.77;101619.63;5029894;28;20036;-68
2020/12/18 09:25:29;;;;;;;33.47;22.55;;;;;;;6.86;77.31;101589.94;5028227;28;20025;-68
2020/12/18 09:27:58;;;;;;;27.23;20.63;;;;;;;7.11;76.83;101617.50;5029492;28;20026;-68
2020/12/18 09:30:29;;;;;;;27.33;19.07;;;;;;;6.89;77.23;101590.72;5026761;28;20451;-68
2020/12/18 09:33:11;;;;;;;23.17;15.73;;;;;;;7.16;76.35;101622.50;5023368;28;20290;-68
2020/12/18 09:35:37;;;;;;;27.40;16.70;;;;;;;6.99;76.94;101592.84;5023023;28;20029;-68
2020/12/18 09:38:03;;;;;;;27.92;16.15;;;;;;;7.07;75.88;101606.34;5029637;28;20075;-68
2020/12/18 09:40:29;;;;;;;27.48;17.77;;;;;;;7.13;76.07;101609.59;5028075;28;20508;-68
2020/12/18 09:42:55;;;;;;;35.30;20.52;;;;;;;7.15;76.37;101615.59;5029353;28;20033;-68
2020/12/18 09:45:20;;;;;;;28.40;17.25;;;;;;;7.13;74.91;101594.81;5024286;28;20485;-68
2020/12/18 09:47:46;;;;;;;30.45;19.15;;;;;;;7.15;75.97;101616.44;5027433;28;20116;-68
2020/12/18 09:50:11;;;;;;;29.05;17.83;;;;;;;6.86;76.08;101579.53;5018256;28;20409;-69
2020/12/18 09:52:37;;;;;;;21.13;13.98;;;;;;;6.96;75.46;101581.72;5015761;28;20065;-69
2020/12/18 09:55:02;;;;;;;28.40;16.75;;;;;;;7.05;75.99;101576.06;5024609;28;20392;-68
2020/12/18 09:57:28;;;;;;;23.38;14.52;;;;;;;7.15;73.96;101582.53;5026587;28;20411;-67
2020/12/18 09:59:53;;;;;;;27.83;16.35;;;;;;;7.28;74.12;101599.28;5025720;28;20029;-68
2020/12/18 10:02:18;;;;;;;24.63;14.88;;;;;;;7.18;74.12;101608.47;5025276;28;20415;-70
2020/12/18 10:04:44;;;;;;;29.63;16.02;;;;;;;6.92;75.16;101567.09;5025404;28;20542;-69
2020/12/18 10:07:09;;;;;;;28.23;18.30;;;;;;;7.22;75.75;101598.72;5023862;28;20033;-69
2020/12/18 10:09:35;;;;;;;50.17;31.98;;;;;;;7.19;76.00;101565.84;5022585;28;20021;-68
2020/12/18 10:12:00;;;;;;;34.03;21.63;;;;;;;7.49;76.39;101596.59;5025463;28;20120;-68
2020/12/18 10:14:26;;;;;;;26.38;16.40;;;;;;;7.63;74.31;101602.00;5018909;28;20500;-67
2020/12/18 10:16:51;;;;;;;21.38;13.55;;;;;;;7.54;73.52;101548.50;5026099;28;20029;-68
2020/12/18 10:19:16;;;;;;;24.73;14.13;;;;;;;7.88;72.47;101590.34;5026554;28;20030;-68
2020/12/18 10:21:42;;;;;;;24.67;16.02;;;;;;;7.56;72.24;101557.09;5029245;28;20026;-68
2020/12/18 10:24:07;;;;;;;28.95;16.50;;;;;;;7.80;72.85;101586.38;5027490;28;20063;-69
2020/12/18 10:26:33;;;;;;;26.98;17.02;;;;;;;7.86;73.83;101595.63;5027765;28;20045;-68
2020/12/18 10:28:58;;;;;;;26.25;17.98;;;;;;;7.87;71.64;101593.91;5028929;28;20022;-69
2020/12/18 10:31:24;;;;;;;22.35;13.52;;;;;;;7.66;70.92;101565.34;5027114;28;20551;-69
2020/12/18 10:33:49;;;;;;;26.40;17.25;;;;;;;7.75;71.42;101588.34;5027454;28;20454;-68
2020/12/18 10:36:15;;;;;;;23.00;13.52;;;;;;;7.62;71.48;101576.81;5031127;28;20033;-67
2020/12/18 10:38:40;;;;;;;25.75;15.73;;;;;;;7.67;73.19;101577.44;5028200;28;20064;-67
2020/12/18 10:41:07;;;;;;;32.42;17.02;;;;;;;7.48;73.38;101542.72;5029736;28;20440;-68
2020/12/18 10:43:33;;;;;;;26.75;15.90;;;;;;;7.53;72.90;101549.44;5023487;28;20024;-69
2020/12/18 10:45:58;;;;;;;25.35;15.25;;;;;;;7.73;72.86;101576.31;5018190;28;20030;-68
2020/12/18 10:48:24;;;;;;;22.83;15.35;;;;;;;7.63;72.38;101549.81;5023523;28;20029;-67
2020/12/18 10:50:49;;;;;;;22.60;14.45;;;;;;;7.61;72.16;101533.38;5025445;28;20027;-69
2020/12/18 10:53:15;;;;;;;21.42;14.50;;;;;;;7.71;72.72;101552.03;5023606;28;20037;-67
2020/12/18 10:55:40;;;;;;;20.15;13.90;;;;;;;7.81;72.81;101569.78;5028729;28;20086;-68
2020/12/18 10:58:06;;;;;;;25.58;16.67;;;;;;;7.93;71.78;101570.94;5026105;28;20030;-64
2020/12/18 11:00:31;;;;;;;23.02;15.00;;;;;;;7.81;71.78;101556.72;5024722;28;20033;-67
2020/12/18 11:02:57;;;;;;;22.40;14.07;;;;;;;7.53;71.86;101557.25;5024451;28;20118;-68
2020/12/18 11:05:22;;;;;;;23.52;14.90;;;;;;;7.66;73.20;101536.63;5029627;28;20022;-69
2020/12/18 11:07:48;;;;;;;21.60;13.63;;;;;;;7.54;72.07;101527.63;5022926;28;20473;-67
2020/12/18 11:10:13;;;;;;;21.70;14.27;;;;;;;7.73;72.32;101522.34;5026905;28;20435;-70
2020/12/18 11:12:39;;;;;;;23.00;14.90;;;;;;;7.87;72.01;101544.31;5024166;28;20580;-70
2020/12/18 11:15:04;;;;;;;25.58;15.77;;;;;;;7.97;71.42;101550.75;5020553;28;20412;-68
2020/12/18 11:17:29;;;;;;;24.45;14.48;;;;;;;7.93;70.23;101531.78;5025878;28;20132;-68
2020/12/18 11:19:55;;;;;;;21.00;14.75;;;;;;;7.99;70.06;101543.66;5023994;28;20021;-69
2020/12/18 11:22:21;;;;;;;24.98;16.88;;;;;;;8.00;71.84;101534.94;5022492;28;20037;-68